createdAt,value
2022-10-22T15:31:06.879Z,7.15
2022-10-22T15:33:33.227Z,4.57
2022-10-22T15:36:15.910Z,4.80
2022-10-22T15:38:42.330Z,4.50
2022-10-22T15:41:12.221Z,4.03
2022-10-22T15:43:38.581Z,6.78
2022-10-22T15:46:12.496Z,3.95
2022-10-22T15:48:39.684Z,4.13
2022-10-22T15:51:13.770Z,4.50
2022-10-22T15:53:40.904Z,4.65
2022-10-22T15:56:07.597Z,5.20
2022-10-22T15:58:34.159Z,7.93
2022-10-22T16:01:05.514Z,5.83
2022-10-22T16:06:04.113Z,6.53
2022-10-22T16:08:31.706Z,7.32
2022-10-22T16:10:58.548Z,6.43
2022-10-22T16:13:26.101Z,5.93
2022-10-22T16:15:53.422Z,5.88
2022-10-22T16:18:21.322Z,5.00
2022-10-22T16:20:47.667Z,7.05
2022-10-22T16:23:15.472Z,8.10
2022-10-22T16:25:42.255Z,8.07
2022-10-22T16:28:10.793Z,7.35
2022-10-22T16:30:38.146Z,7.00
2022-10-22T16:33:06.266Z,6.07
2022-10-22T16:35:32.886Z,5.28
2022-10-22T16:37:59.551Z,6.27
2022-10-22T16:40:25.853Z,5.95
2022-10-22T16:42:52.418Z,5.57
2022-10-22T16:45:18.722Z,5.97
2022-10-22T16:47:46.847Z,6.18
2022-10-22T16:50:13.294Z,4.93
2022-10-22T16:52:39.763Z,6.28
2022-10-22T16:55:06.263Z,6.32
2022-10-22T16:57:33.802Z,6.03
2022-10-22T17:00:00.137Z,7.30
2022-10-22T17:02:26.445Z,5.13
2022-10-22T17:04:52.763Z,6.72
2022-10-22T17:07:19.115Z,7.40
2022-10-22T17:09:45.496Z,7.15
2022-10-22T17:12:11.848Z,6.60
2022-10-22T17:14:38.136Z,5.87
2022-10-22T17:17:04.514Z,5.18
2022-10-22T17:19:30.846Z,4.43
2022-10-22T17:21:57.127Z,6.72
2022-10-22T17:24:23.430Z,5.00
2022-10-22T17:26:49.714Z,4.83
2022-10-22T17:29:16.666Z,5.47
2022-10-22T17:31:42.998Z,5.35
2022-10-22T17:34:15.495Z,5.47
2022-10-22T17:36:42.809Z,4.93
2022-10-22T17:39:13.523Z,4.93
2022-10-22T17:41:39.845Z,7.97
2022-10-22T17:44:09.139Z,8.35
2022-10-22T17:46:35.763Z,7.45
2022-10-22T17:49:04.673Z,7.80
2022-10-22T17:51:31.726Z,7.83
2022-10-22T17:53:58.906Z,6.45
2022-10-22T17:56:28.783Z,6.00
2022-10-22T17:58:55.579Z,7.63
2022-10-22T18:01:25.502Z,8.25
2022-10-22T18:03:53.399Z,8.03
2022-10-22T18:06:20.529Z,7.78
2022-10-22T18:08:47.087Z,6.70
2022-10-22T18:11:18.697Z,8.50
2022-10-22T18:13:49.040Z,7.80
2022-10-22T18:16:15.436Z,14.07
2022-10-22T18:18:47.004Z,14.60
2022-10-22T18:21:14.512Z,22.73
2022-10-22T18:23:41.067Z,24.73
2022-10-22T18:26:07.383Z,22.73
2022-10-22T18:28:33.870Z,22.40
2022-10-22T18:31:00.198Z,20.10
2022-10-22T18:33:26.579Z,19.42
2022-10-22T18:35:52.889Z,18.23
2022-10-22T18:38:21.745Z,17.27
2022-10-22T18:40:49.196Z,15.40
2022-10-22T18:43:17.066Z,16.50
2022-10-22T18:45:48.283Z,12.55
2022-10-22T18:48:17.594Z,15.10
2022-10-22T18:50:44.657Z,13.90
2022-10-22T18:53:13.536Z,12.63
2022-10-22T18:55:40.154Z,13.68
2022-10-22T18:58:07.279Z,13.60
2022-10-22T19:00:36.710Z,12.30
2022-10-22T19:03:03.243Z,14.93
2022-10-22T19:05:29.597Z,15.37
2022-10-22T19:07:55.933Z,14.45
2022-10-22T19:10:22.286Z,15.25
2022-10-22T19:12:48.587Z,12.93
2022-10-22T19:15:14.923Z,13.80
2022-10-22T19:17:41.570Z,14.03
2022-10-22T19:20:08.730Z,14.90
2022-10-22T19:22:35.118Z,16.05
2022-10-22T19:25:01.461Z,15.82
2022-10-22T19:27:27.742Z,17.13
2022-10-22T19:29:54.027Z,15.23
2022-10-22T19:32:20.937Z,15.43
2022-10-22T19:34:47.250Z,15.90
2022-10-22T19:37:13.850Z,14.82
2022-10-22T19:39:40.130Z,12.18
2022-10-22T19:42:06.486Z,10.80
2022-10-22T19:44:32.855Z,10.93
2022-10-22T19:46:59.153Z,16.17
2022-10-22T19:49:25.464Z,10.77
2022-10-22T19:51:51.803Z,11.27
2022-10-22T19:54:21.182Z,12.90
2022-10-22T19:56:48.871Z,10.60
2022-10-22T19:59:16.305Z,11.75
2022-10-22T20:01:43.006Z,10.30
2022-10-22T20:04:15.086Z,10.70
2022-10-22T20:06:41.480Z,10.80
2022-10-22T20:09:07.820Z,12.48
2022-10-22T20:11:34.120Z,15.93
2022-10-22T20:14:00.460Z,15.10
2022-10-22T20:16:29.508Z,22.60
2022-10-22T20:19:01.019Z,19.20
2022-10-22T20:21:27.531Z,21.05
2022-10-22T20:23:56.468Z,25.20
2022-10-22T20:26:24.323Z,23.15
2022-10-22T20:28:52.043Z,22.98
2022-10-22T20:31:20.071Z,20.13
2022-10-22T20:33:47.611Z,20.95
2022-10-22T20:36:18.313Z,16.50
2022-10-22T20:38:47.767Z,14.55
2022-10-22T20:41:17.485Z,15.90
2022-10-22T20:43:45.527Z,12.97
2022-10-22T20:46:22.881Z,13.02
2022-10-22T20:48:55.215Z,14.75
2022-10-22T20:51:21.578Z,13.15
2022-10-22T20:53:48.020Z,12.05
2022-10-22T20:56:14.928Z,11.03
2022-10-22T20:58:47.594Z,11.00
2022-10-22T21:01:21.335Z,12.30
2022-10-22T21:03:52.509Z,10.75
2022-10-22T21:06:23.743Z,13.15
2022-10-22T21:08:50.883Z,10.13
2022-10-22T21:11:17.735Z,11.02
2022-10-22T21:13:44.090Z,11.57
2022-10-22T21:16:13.301Z,11.82
2022-10-22T21:18:39.776Z,13.27
2022-10-22T21:21:07.595Z,13.23
2022-10-22T21:23:36.241Z,13.68
2022-10-22T21:26:03.555Z,14.35
2022-10-22T21:31:03.225Z,15.45
2022-10-22T21:33:29.678Z,14.33
2022-10-22T21:35:57.215Z,15.63
2022-10-22T21:38:24.613Z,15.35
2022-10-22T21:40:50.946Z,13.43
2022-10-22T21:43:17.941Z,13.80
2022-10-22T21:45:44.675Z,14.70
2022-10-22T21:48:14.623Z,13.63
2022-10-22T21:50:42.850Z,15.88
2022-10-22T21:53:10.390Z,14.07
2022-10-22T21:55:38.371Z,12.77
2022-10-22T21:58:04.732Z,14.13
2022-10-22T22:00:31.038Z,16.50
2022-10-22T22:02:57.335Z,16.80
2022-10-22T22:05:23.623Z,13.05
2022-10-22T22:07:49.949Z,14.85
2022-10-22T22:10:16.310Z,13.77
2022-10-22T22:12:42.869Z,12.70
2022-10-22T22:15:09.875Z,11.38
2022-10-22T22:17:36.389Z,13.65
2022-10-22T22:20:03.459Z,14.75
2022-10-22T22:22:29.957Z,17.90
2022-10-22T22:24:56.232Z,16.27
2022-10-22T22:27:22.592Z,16.05
2022-10-22T22:29:48.865Z,17.52
2022-10-22T22:32:15.802Z,16.90
2022-10-22T22:34:42.106Z,16.43
2022-10-22T22:37:08.399Z,16.27
2022-10-22T22:39:34.696Z,15.85
2022-10-22T22:42:01.307Z,14.80
2022-10-22T22:44:27.627Z,15.48
2022-10-22T22:46:53.901Z,13.90
2022-10-22T22:49:20.399Z,15.25
2022-10-22T22:51:46.806Z,17.67
2022-10-22T22:54:13.134Z,13.55
2022-10-22T22:56:39.491Z,15.88
2022-10-22T22:59:06.102Z,12.97
2022-10-22T23:01:38.310Z,11.68
2022-10-22T23:04:07.481Z,13.38
2022-10-22T23:06:36.205Z,12.35
2022-10-22T23:09:04.704Z,12.25
2022-10-22T23:11:31.211Z,17.27
2022-10-22T23:14:00.002Z,18.40
2022-10-22T23:16:29.498Z,17.80
2022-10-22T23:18:56.720Z,13.88
2022-10-22T23:21:28.677Z,15.25
2022-10-22T23:23:57.773Z,15.30
2022-10-22T23:26:31.461Z,14.75
2022-10-22T23:29:12.310Z,14.82
2022-10-22T23:31:38.802Z,14.05
2022-10-22T23:34:06.034Z,13.88
2022-10-22T23:36:34.300Z,14.23
2022-10-22T23:39:02.369Z,13.30
2022-10-22T23:41:28.641Z,15.45
2022-10-22T23:43:55.057Z,14.32
2022-10-22T23:46:21.405Z,16.20
2022-10-22T23:48:47.727Z,12.33
2022-10-22T23:51:16.533Z,12.25
2022-10-22T23:53:44.231Z,12.75
2022-10-22T23:56:18.181Z,11.23
2022-10-22T23:58:45.195Z,10.23
